Aquebogue, NY (11931)

11:35 AM EST on November 26, 2014 (GMT -0500)
Jamesport | Change Station
CLOSE
Current Station
Personal Weather Station
Location: Jamesport, NY
Elevation: 23 ft
Nearby Weather Stations
Active Advisory: Wind Advisory

Elev 23 ft 40.95 °N, 72.60 °W | Updated 2 seconds ago

Rain
Rain
39.9 °F
Feels Like 37 °F
N
4.0
Wind Variable Wind from NE
Gusts 6.0 mph

Today
High -- | Low -- °F
--% Chance of Precip.
Yesterday
High -- | Low -- °F
Precip. -- in
6:50 AM 4:24 PM
Waxing Crescent, 21% visible
Pressure 30.08 in
Visibility 2.0 miles
Clouds Mostly Cloudy 600 ft
Mostly Cloudy 1000 ft
Overcast 6000 ft
Windchill 37 °F
Dew Point 39 °F
Humidity 98%
Rainfall 0.00 in
Snow Depth Not available.
UV 1 out of 12
Pollen .10 out of 12
Air Quality Not available.
Flu Activity Not available.
SPECI KFOK 261600Z 02014KT 2SM RA BR BKN006 BKN010 OVC060 05/03 A3008 RMK AO2 P0001 T00500033

More Conditions Fewer Conditions

Pressure 30.08 in
Visibility 2.0 miles
Clouds Mostly Cloudy 600 ft
Mostly Cloudy 1000 ft
Overcast 6000 ft
Windchill 37 °F
Dew Point 39 °F
Humidity 98%
Rainfall 0.00 in
Snow Depth Not available.
UV 1 out of 12
Pollen .10 out of 12
Air Quality Not available.
Flu Activity Not available.
SPECI KFOK 261600Z 02014KT 2SM RA BR BKN006 BKN010 OVC060 05/03 A3008 RMK AO2 P0001 T00500033

More Conditions Fewer Conditions

10-Day Weather Forecast

Almanac

Astronomy

Nov. 26, 2014 Rise Set
Actual Time
Civil Twilight
Nautical Twilight
Astronomical Twilight
Moon
Length of Visible Light
Length of Day
Tomorrow will be .
, % of the Moon is Illuminated

Today's Extremes

State Highs State Lows

Community

WunderPhotos

Upload Photos

1,773,789 photos uploaded!

WunderBlogs® & News

Nearby

Air Quality

  Air Quality AQ Index Pollutant
Not available.

Snow Depth

Station Depth Elevation

Earthquake Activity

City Distance Mag. Time & Date
Minimum magnitude displayed is 2.5.

Coastal Water Temperatures

Place Temperature

Nearby Weather Stations